Time;durP1;ratioP1;P1;durP2;ratioP2;P2;SDS_P1;SDS_P2;PMS_P1;PMS_P2;Temp;Humidity;BMP_temperature;BMP_pressure;BME280_temperature;BME280_humidity;BME280_pressure;Samples;Min_cycle;Max_cycle;Signal;HPM_P1;HPM_P2
2021/01/29 00:01:13;;;;;;;6.55;4.95;;;3.20;83.70;;;;;;5039161;28;20112;-60
2021/01/29 00:03:39;;;;;;;6.97;5.07;;;3.30;83.30;;;;;;5037089;28;20466;-59
2021/01/29 00:06:05;;;;;;;7.40;5.07;;;3.20;83.20;;;;;;5036876;28;20113;-59
2021/01/29 00:08:33;;;;;;;6.63;4.15;;;3.20;83.20;;;;;;5039450;28;20114;-58
2021/01/29 00:11:00;;;;;;;4.50;3.78;;;3.20;82.80;;;;;;5039560;28;20033;-60
2021/01/29 00:13:27;;;;;;;3.90;3.25;;;3.10;82.70;;;;;;5039484;28;20074;-59
2021/01/29 00:15:52;;;;;;;4.97;3.33;;;3.00;82.10;;;;;;5038917;28;20605;-60
2021/01/29 00:18:20;;;;;;;3.97;3.55;;;2.90;82.30;;;;;;5037468;28;20159;-59
2021/01/29 00:20:46;;;;;;;3.78;3.13;;;2.90;82.50;;;;;;5037071;28;20032;-60
2021/01/29 00:23:11;;;;;;;4.40;3.50;;;2.90;83.00;;;;;;5038296;28;20018;-59
2021/01/29 00:25:45;;;;;;;3.97;2.95;;;2.80;82.90;;;;;;5038892;28;20112;-60
2021/01/29 00:28:11;;;;;;;4.43;3.17;;;2.80;82.80;;;;;;5038794;28;20045;-58
2021/01/29 00:30:36;;;;;;;4.05;3.65;;;2.70;82.10;;;;;;5040686;28;20053;-59
2021/01/29 00:33:04;;;;;;;4.60;4.00;;;2.60;81.50;;;;;;5040930;28;20029;-60
2021/01/29 00:35:31;;;;;;;4.38;3.42;;;2.50;82.00;;;;;;5041979;28;20033;-60
2021/01/29 00:37:58;;;;;;;4.35;3.35;;;2.50;82.30;;;;;;5038216;28;20028;-60
2021/01/29 00:40:24;;;;;;;4.90;3.45;;;2.40;82.00;;;;;;5037314;28;20033;-60
2021/01/29 00:42:50;;;;;;;4.22;3.28;;;2.30;82.20;;;;;;5038883;28;20060;-59
2021/01/29 00:45:18;;;;;;;4.63;3.55;;;2.20;82.20;;;;;;5040338;28;20035;-59
2021/01/29 00:47:44;;;;;;;4.20;3.47;;;2.20;82.50;;;;;;5036409;28;20489;-60
2021/01/29 00:50:11;;;;;;;4.05;3.50;;;2.20;82.70;;;;;;5037221;28;20075;-59
2021/01/29 00:52:37;;;;;;;3.42;3.10;;;2.10;82.60;;;;;;5039627;28;20417;-59
2021/01/29 00:55:05;;;;;;;4.55;3.92;;;2.10;82.80;;;;;;5039118;28;20136;-59
2021/01/29 00:57:31;;;;;;;4.50;3.65;;;2.10;82.60;;;;;;5038165;28;20045;-60
2021/01/29 00:59:56;;;;;;;6.65;3.70;;;2.10;82.50;;;;;;5038268;28;20079;-59
2021/01/29 01:02:22;;;;;;;4.45;3.42;;;2.10;83.00;;;;;;5037375;28;20033;-60
2021/01/29 01:04:48;;;;;;;5.35;3.60;;;2.10;82.70;;;;;;5037317;28;20060;-60
2021/01/29 01:07:14;;;;;;;4.03;3.58;;;2.10;82.70;;;;;;5038328;28;20564;-59
2021/01/29 01:09:40;;;;;;;4.15;3.60;;;2.00;82.20;;;;;;5041429;28;20049;-59
2021/01/29 01:12:06;;;;;;;5.25;3.50;;;2.00;82.20;;;;;;5038696;28;20029;-59
2021/01/29 01:14:32;;;;;;;4.93;3.63;;;2.00;82.20;;;;;;5039067;28;20626;-60
2021/01/29 01:16:58;;;;;;;8.07;4.00;;;1.90;81.80;;;;;;5038703;28;20113;-59
2021/01/29 01:19:24;;;;;;;4.90;3.90;;;1.90;82.10;;;;;;5037332;28;20032;-59
2021/01/29 01:21:49;;;;;;;5.72;4.40;;;1.90;82.50;;;;;;5037188;28;20037;-59
2021/01/29 01:24:15;;;;;;;5.20;3.60;;;1.90;82.50;;;;;;5038950;28;20057;-58
2021/01/29 01:26:41;;;;;;;5.65;4.00;;;1.90;82.40;;;;;;5035316;28;20458;-59
2021/01/29 01:29:07;;;;;;;5.03;3.70;;;1.90;82.40;;;;;;5038426;28;20539;-58
2021/01/29 01:31:32;;;;;;;6.65;4.40;;;2.00;82.00;;;;;;5038222;28;20470;-59
2021/01/29 01:33:58;;;;;;;5.90;4.22;;;2.00;81.80;;;;;;5037514;28;20067;-60
2021/01/29 01:36:24;;;;;;;5.13;3.80;;;1.90;81.50;;;;;;5036928;28;20026;-59
2021/01/29 01:38:50;;;;;;;6.05;3.60;;;1.90;81.60;;;;;;5037794;28;20120;-58
2021/01/29 01:41:16;;;;;;;5.00;3.85;;;1.80;81.50;;;;;;5042016;28;20041;-60
2021/01/29 01:43:41;;;;;;;5.15;4.00;;;1.80;81.70;;;;;;5039959;28;20030;-58
2021/01/29 01:46:08;;;;;;;4.93;3.53;;;1.80;81.60;;;;;;5036332;28;20029;-59
2021/01/29 01:48:34;;;;;;;5.43;3.92;;;1.80;81.80;;;;;;5035404;28;20120;-59
2021/01/29 01:51:01;;;;;;;6.07;4.03;;;1.80;81.80;;;;;;5035995;28;20104;-59
2021/01/29 01:53:38;;;;;;;5.53;3.80;;;1.80;82.00;;;;;;5039847;28;20473;-59
2021/01/29 01:56:37;;;;;;;6.20;3.80;;;1.80;82.50;;;;;;5037238;28;20032;-60
2021/01/29 01:59:04;;;;;;;5.07;4.20;;;1.90;81.90;;;;;;5036599;28;20022;-59
2021/01/29 02:01:31;;;;;;;4.82;3.75;;;1.90;81.80;;;;;;5036378;28;20040;-59
2021/01/29 02:03:59;;;;;;;5.93;4.72;;;1.90;81.70;;;;;;5036796;28;20057;-59
2021/01/29 02:06:26;;;;;;;5.32;4.65;;;1.90;81.70;;;;;;5034949;28;20029;-60
2021/01/29 02:08:57;;;;;;;6.38;5.03;;;2.00;82.10;;;;;;5034809;28;20053;-57
2021/01/29 02:11:24;;;;;;;4.88;3.70;;;2.00;82.00;;;;;;5035291;28;20110;-59
2021/01/29 02:13:50;;;;;;;5.15;4.07;;;2.10;81.80;;;;;;5036711;28;20033;-59
2021/01/29 02:16:25;;;;;;;5.07;3.97;;;2.10;81.40;;;;;;5035944;28;20445;-59
2021/01/29 02:19:02;;;;;;;5.40;4.43;;;2.20;81.30;;;;;;5039475;28;20034;-60
2021/01/29 02:22:02;;;;;;;5.70;4.70;;;2.20;81.30;;;;;;5038096;28;20104;-58
2021/01/29 02:25:04;;;;;;;5.57;4.25;;;2.20;81.50;;;;;;5036633;28;20041;-59
2021/01/29 02:27:30;;;;;;;6.65;5.00;;;2.20;81.60;;;;;;5033353;28;20044;-58
2021/01/29 02:29:56;;;;;;;6.43;4.75;;;2.30;81.60;;;;;;5039035;28;20354;-58
2021/01/29 02:32:55;;;;;;;6.07;4.78;;;2.30;81.50;;;;;;5037708;28;20473;-59
2021/01/29 02:35:55;;;;;;;7.05;4.50;;;2.40;81.30;;;;;;5037038;28;20445;-60
2021/01/29 02:38:48;;;;;;;5.30;4.60;;;2.40;82.00;;;;;;5036074;28;20075;-58
2021/01/29 02:41:28;;;;;;;6.28;5.00;;;2.40;81.00;;;;;;5036894;28;20075;-58
2021/01/29 02:44:21;;;;;;;4.82;3.97;;;2.50;81.20;;;;;;5039746;28;20392;-60
2021/01/29 02:46:50;;;;;;;5.15;4.20;;;2.60;81.20;;;;;;5037595;28;20103;-59
2021/01/29 02:49:26;;;;;;;5.68;4.68;;;2.60;81.10;;;;;;5043827;28;20148;-59
2021/01/29 02:52:08;;;;;;;5.40;4.40;;;2.60;80.40;;;;;;5040143;28;20021;-59
2021/01/29 02:55:07;;;;;;;5.78;4.70;;;2.70;80.80;;;;;;5039618;28;20532;-59
2021/01/29 02:57:36;;;;;;;5.28;4.60;;;2.70;80.40;;;;;;5032472;28;20056;-59
2021/01/29 03:00:16;;;;;;;5.30;4.07;;;2.70;80.20;;;;;;5040620;28;20482;-59
2021/01/29 03:02:55;;;;;;;5.43;4.55;;;2.80;80.00;;;;;;5041389;28;20358;-59
2021/01/29 03:05:27;;;;;;;5.35;4.10;;;2.70;79.80;;;;;;5040304;28;20484;-58
2021/01/29 03:08:27;;;;;;;4.68;3.83;;;2.70;79.70;;;;;;5041360;28;20021;-60
2021/01/29 03:11:01;;;;;;;5.25;4.38;;;2.70;79.20;;;;;;5037233;28;20366;-60
2021/01/29 03:13:41;;;;;;;7.53;4.93;;;2.70;79.20;;;;;;5038200;28;20067;-57
2021/01/29 03:16:18;;;;;;;3.95;3.55;;;2.70;79.40;;;;;;5038383;28;20068;-60
2021/01/29 03:18:58;;;;;;;5.72;4.20;;;2.70;79.30;;;;;;5040669;28;20506;-58
2021/01/29 03:21:53;;;;;;;4.82;3.80;;;2.70;79.20;;;;;;5041038;28;20082;-60
2021/01/29 03:24:37;;;;;;;4.75;3.33;;;2.70;79.10;;;;;;5039906;28;20048;-59
2021/01/29 03:27:13;;;;;;;4.90;3.80;;;2.70;78.80;;;;;;5040490;28;20025;-59
2021/01/29 03:29:46;;;;;;;3.88;3.53;;;2.70;79.50;;;;;;5040953;28;20077;-59
2021/01/29 03:32:14;;;;;;;6.00;4.10;;;2.70;78.90;;;;;;5039736;28;20055;-59
2021/01/29 03:35:09;;;;;;;4.60;4.00;;;2.60;78.70;;;;;;5039687;28;20483;-59
2021/01/29 03:37:53;;;;;;;5.50;3.90;;;2.60;78.30;;;;;;5040219;28;20034;-60
2021/01/29 03:40:19;;;;;;;5.00;3.80;;;2.60;78.10;;;;;;5040395;28;20064;-59
2021/01/29 03:42:59;;;;;;;4.72;3.60;;;2.60;78.30;;;;;;5041736;28;20029;-60
2021/01/29 03:45:38;;;;;;;5.63;4.05;;;2.60;78.30;;;;;;5040761;28;20033;-59
2021/01/29 03:48:35;;;;;;;5.95;4.43;;;2.60;78.10;;;;;;5040475;28;20021;-59
2021/01/29 03:51:35;;;;;;;4.30;3.90;;;2.60;78.10;;;;;;5036086;28;20032;-59
2021/01/29 03:54:20;;;;;;;4.38;3.25;;;2.60;77.80;;;;;;5024288;28;20034;-60
2021/01/29 03:57:30;;;;;;;3.90;3.50;;;2.60;77.90;;;;;;5039900;28;20046;-58
2021/01/29 04:00:30;;;;;;;4.90;3.90;;;2.60;77.40;;;;;;5031597;28;20033;-60
2021/01/29 04:03:19;;;;;;;3.78;3.17;;;2.60;77.40;;;;;;5032169;28;20183;-59
2021/01/29 04:06:11;;;;;;;4.40;3.60;;;2.50;77.70;;;;;;5040325;28;20047;-60
2021/01/29 04:08:41;;;;;;;;;;;2.50;77.30;;;;;;5042137;28;20429;-57
2021/01/29 04:11:11;;;;;;;4.50;4.10;;;2.40;77.00;;;;;;5044482;28;20308;-60
2021/01/29 04:13:51;;;;;;;4.30;3.20;;;2.40;77.70;;;;;;5037827;28;20021;-59
2021/01/29 04:16:31;;;;;;;5.80;3.60;;;2.40;77.60;;;;;;5040114;28;20018;-59
2021/01/29 04:19:00;;;;;;;4.43;3.67;;;2.40;77.50;;;;;;5043163;28;20351;-59
2021/01/29 04:21:40;;;;;;;6.00;4.20;;;2.40;77.70;;;;;;5042644;28;20075;-59
2021/01/29 04:24:11;;;;;;;4.80;3.60;;;2.40;77.40;;;;;;5036754;28;20021;-59
2021/01/29 04:26:55;;;;;;;3.72;3.30;;;2.40;77.40;;;;;;5038868;28;20068;-60
2021/01/29 04:29:32;;;;;;;4.45;3.63;;;2.40;77.00;;;;;;5039445;28;20025;-60
2021/01/29 04:32:05;;;;;;;6.15;4.20;;;2.40;76.60;;;;;;5043371;28;20561;-60
2021/01/29 04:34:36;;;;;;;5.07;3.97;;;2.30;76.60;;;;;;5042062;28;20022;-59
2021/01/29 04:37:07;;;;;;;6.00;4.50;;;2.30;76.90;;;;;;5037673;28;20469;-59
2021/01/29 04:39:39;;;;;;;6.22;4.72;;;2.30;76.80;;;;;;5036933;28;20378;-59
2021/01/29 04:42:37;;;;;;;4.65;3.75;;;2.30;76.90;;;;;;5044363;28;20057;-60
2021/01/29 04:45:24;;;;;;;5.68;4.47;;;2.20;77.00;;;;;;5039459;28;20017;-59
2021/01/29 04:48:08;;;;;;;5.97;4.72;;;2.20;77.00;;;;;;5039789;28;20048;-59
2021/01/29 04:51:15;;;;;;;5.07;4.13;;;2.10;76.70;;;;;;5035138;28;20072;-60
2021/01/29 04:54:03;;;;;;;4.80;4.30;;;2.10;76.50;;;;;;5039795;28;20033;-59
2021/01/29 04:56:37;;;;;;;5.32;4.15;;;2.00;76.50;;;;;;5039976;28;20026;-59
2021/01/29 04:59:30;;;;;;;6.85;5.13;;;2.00;76.60;;;;;;5038551;28;20088;-59
2021/01/29 05:02:43;;;;;;;5.35;4.50;;;1.90;76.40;;;;;;5041827;28;20020;-59
2021/01/29 05:05:38;;;;;;;5.20;4.25;;;1.90;76.60;;;;;;5037607;28;20045;-59
2021/01/29 05:08:14;;;;;;;6.13;5.00;;;1.90;76.90;;;;;;5024293;28;20025;-59
2021/01/29 05:10:54;;;;;;;7.85;5.78;;;1.90;76.70;;;;;;5040240;28;20456;-59
2021/01/29 05:13:48;;;;;;;5.90;4.88;;;1.90;76.70;;;;;;5038523;28;20507;-58
2021/01/29 05:16:26;;;;;;;7.57;5.57;;;1.90;76.60;;;;;;5036621;28;20057;-59
2021/01/29 05:19:16;;;;;;;7.88;5.43;;;1.90;76.60;;;;;;5036440;28;20029;-59
2021/01/29 05:21:51;;;;;;;7.88;5.50;;;1.90;77.00;;;;;;5041136;28;20480;-60
2021/01/29 05:24:52;;;;;;;12.63;7.10;;;1.80;76.00;;;;;;5036207;28;20044;-60
2021/01/29 05:27:30;;;;;;;7.78;6.13;;;1.80;75.40;;;;;;5038866;28;20029;-60
2021/01/29 05:30:17;;;;;;;7.65;6.00;;;1.80;75.40;;;;;;5037922;28;20028;-60
2021/01/29 05:32:54;;;;;;;9.93;7.32;;;1.70;75.60;;;;;;5037590;28;20083;-59
2021/01/29 05:35:35;;;;;;;7.07;5.60;;;1.70;75.70;;;;;;5035696;28;20025;-59
2021/01/29 05:38:26;;;;;;;7.88;5.55;;;1.80;76.00;;;;;;5037869;28;20032;-59
2021/01/29 05:41:17;;;;;;;9.82;6.95;;;1.80;75.50;;;;;;5038706;28;20025;-58
2021/01/29 05:43:56;;;;;;;7.82;5.60;;;1.80;75.10;;;;;;5042382;28;20034;-58
2021/01/29 05:46:32;;;;;;;7.57;6.25;;;1.80;74.70;;;;;;5035736;28;20096;-60
2021/01/29 05:49:06;;;;;;;8.05;6.00;;;1.80;74.60;;;;;;5038478;28;20339;-59
2021/01/29 05:52:05;;;;;;;7.55;6.15;;;1.70;74.00;;;;;;5040855;28;20025;-60
2021/01/29 05:54:58;;;;;;;8.00;6.43;;;1.60;73.70;;;;;;5036629;28;20032;-59
2021/01/29 05:57:27;;;;;;;9.32;6.65;;;1.50;73.80;;;;;;5037811;28;20017;-59
2021/01/29 06:00:01;;;;;;;9.77;7.00;;;1.40;73.90;;;;;;5036743;28;21157;-58
2021/01/29 06:02:43;;;;;;;8.43;6.70;;;1.40;74.30;;;;;;5036415;28;20025;-59
2021/01/29 06:05:27;;;;;;;;;;;1.40;74.70;;;;;;5039812;28;20021;-59
2021/01/29 06:08:17;;;;;;;10.00;6.53;;;1.40;74.40;;;;;;5038330;28;19920;-60
2021/01/29 06:10:53;;;;;;;9.23;6.93;;;1.50;75.30;;;;;;5036601;28;20068;-60
2021/01/29 06:13:24;;;;;;;11.50;7.57;;;1.60;75.30;;;;;;5037351;28;20029;-58
2021/01/29 06:16:09;;;;;;;10.20;7.95;;;1.60;75.20;;;;;;5038833;28;20037;-59
2021/01/29 06:18:44;;;;;;;10.10;7.35;;;1.70;74.80;;;;;;5038190;28;20029;-59
2021/01/29 06:21:37;;;;;;;10.52;7.45;;;1.70;74.70;;;;;;5037798;28;20357;-60
2021/01/29 06:24:13;;;;;;;10.32;7.38;;;1.70;74.30;;;;;;5037045;28;20044;-59
2021/01/29 06:26:57;;;;;;;9.82;7.97;;;1.80;74.40;;;;;;5039580;28;20082;-60
2021/01/29 06:29:34;;;;;;;9.85;7.00;;;1.70;73.90;;;;;;5039496;28;20083;-59
2021/01/29 06:32:19;;;;;;;12.38;8.20;;;1.60;74.00;;;;;;5041723;28;20350;-58
2021/01/29 06:35:29;;;;;;;11.27;8.30;;;1.60;73.70;;;;;;5037878;28;20030;-59
2021/01/29 06:38:02;;;;;;;10.05;8.00;;;1.60;73.80;;;;;;5037104;28;20049;-60
2021/01/29 06:40:55;;;;;;;12.18;8.10;;;1.60;74.20;;;;;;5035700;28;20021;-59
2021/01/29 06:43:52;;;;;;;12.43;8.15;;;1.60;74.00;;;;;;5037379;28;20036;-58
2021/01/29 06:46:36;;;;;;;10.93;8.25;;;1.60;73.60;;;;;;5038100;28;20056;-59
2021/01/29 06:49:13;;;;;;;12.63;9.00;;;1.60;73.80;;;;;;5042424;28;20057;-60
2021/01/29 06:52:15;;;;;;;10.15;8.20;;;1.60;73.60;;;;;;5043864;28;20413;-59
2021/01/29 06:54:50;;;;;;;15.63;9.88;;;1.60;73.50;;;;;;5044345;28;20028;-60
2021/01/29 06:57:30;;;;;;;13.63;9.60;;;1.50;73.30;;;;;;5041115;28;20037;-57
2021/01/29 07:00:01;;;;;;;13.75;8.57;;;1.50;73.20;;;;;;5040594;28;20100;-57
2021/01/29 07:02:36;;;;;;;13.82;9.48;;;1.50;73.20;;;;;;5040392;28;20095;-59
2021/01/29 07:05:21;;;;;;;16.83;12.40;;;1.50;73.40;;;;;;5040148;28;20021;-60
2021/01/29 07:07:49;;;;;;;15.73;9.88;;;1.50;73.80;;;;;;5040831;28;20036;-58
2021/01/29 07:10:27;;;;;;;15.43;9.80;;;1.60;73.90;;;;;;5041902;28;20042;-59
2021/01/29 07:13:21;;;;;;;14.68;9.57;;;1.70;73.70;;;;;;5035379;28;20029;-59
2021/01/29 07:16:18;;;;;;;13.68;9.98;;;1.70;73.40;;;;;;5037923;28;20037;-60
2021/01/29 07:19:08;;;;;;;11.45;8.88;;;1.80;73.80;;;;;;5037314;28;20106;-60
2021/01/29 07:22:04;;;;;;;12.75;9.05;;;1.90;73.50;;;;;;5038126;28;20626;-59
2021/01/29 07:24:56;;;;;;;13.40;9.23;;;2.00;73.00;;;;;;5042133;28;20424;-58
2021/01/29 07:27:35;;;;;;;13.00;10.10;;;2.00;72.80;;;;;;5046500;28;20033;-59
2021/01/29 07:30:11;;;;;;;12.10;8.73;;;2.00;72.70;;;;;;5043859;28;20100;-60
2021/01/29 07:32:45;;;;;;;19.58;10.80;;;2.10;72.80;;;;;;5047111;28;20021;-58
2021/01/29 07:35:36;;;;;;;16.55;11.38;;;2.20;72.70;;;;;;5043713;28;20489;-58
2021/01/29 07:38:08;;;;;;;16.20;11.40;;;2.30;72.40;;;;;;5049801;28;20034;-58
2021/01/29 07:40:45;;;;;;;16.00;11.27;;;2.30;72.20;;;;;;5042811;28;20063;-59
2021/01/29 07:43:31;;;;;;;20.52;12.35;;;2.40;71.90;;;;;;5038949;28;20029;-60
2021/01/29 07:46:20;;;;;;;16.73;11.25;;;2.40;70.90;;;;;;5037839;28;20427;-58
2021/01/29 07:49:32;;;;;;;14.95;10.80;;;2.40;70.50;;;;;;5040497;28;20537;-58
2021/01/29 07:52:35;;;;;;;18.02;10.98;;;2.40;70.40;;;;;;5048537;28;20413;-59
2021/01/29 07:55:10;;;;;;;12.00;8.77;;;2.40;70.30;;;;;;5039992;28;20032;-59
2021/01/29 07:58:01;;;;;;;14.32;9.43;;;2.40;70.30;;;;;;5038894;28;20076;-59
2021/01/29 08:00:38;;;;;;;14.68;11.05;;;2.40;69.70;;;;;;5030883;28;20040;-59
2021/01/29 08:03:28;;;;;;;16.65;10.57;;;2.30;70.00;;;;;;5033966;28;20033;-60
2021/01/29 08:06:16;;;;;;;12.35;8.73;;;2.30;69.70;;;;;;5035319;28;20521;-60
2021/01/29 08:08:57;;;;;;;14.20;9.30;;;2.20;69.70;;;;;;5036212;28;20523;-59
2021/01/29 08:11:24;;;;;;;16.60;11.07;;;2.20;69.80;;;;;;5038929;28;20039;-59
2021/01/29 08:14:20;;;;;;;18.30;11.35;;;2.10;70.30;;;;;;5043429;28;20308;-59
2021/01/29 08:17:03;;;;;;;13.07;9.43;;;2.20;70.50;;;;;;5039247;28;20152;-59
2021/01/29 08:27:07;;;;;;;15.35;10.23;;;2.10;69.80;;;;;;5029116;28;20047;-59
2021/01/29 08:30:14;;;;;;;14.00;9.60;;;2.10;69.70;;;;;;5011049;28;20120;-59
2021/01/29 08:33:16;;;;;;;17.48;11.13;;;2.20;70.10;;;;;;5030917;28;20543;-59
2021/01/29 08:36:07;;;;;;;13.77;9.73;;;2.20;69.80;;;;;;5030658;28;20033;-59
2021/01/29 08:38:39;;;;;;;14.85;9.73;;;2.30;69.80;;;;;;5027107;28;20478;-59
2021/01/29 08:41:29;;;;;;;16.88;10.80;;;2.30;69.80;;;;;;5036267;28;20029;-57
2021/01/29 08:44:18;;;;;;;16.80;11.27;;;2.40;69.90;;;;;;5034745;28;20152;-59
2021/01/29 08:47:16;;;;;;;14.48;9.65;;;2.50;70.40;;;;;;5036384;28;20428;-59
2021/01/29 08:49:51;;;;;;;12.45;9.52;;;2.60;70.20;;;;;;5035377;28;20025;-59
2021/01/29 08:52:53;;;;;;;12.70;10.18;;;2.70;70.40;;;;;;5044847;28;20040;-59
2021/01/29 08:55:53;;;;;;;11.50;9.63;;;2.80;69.70;;;;;;5035400;28;20025;-59
2021/01/29 08:58:47;;;;;;;12.00;9.85;;;2.70;69.00;;;;;;5028053;28;20037;-59
2021/01/29 09:01:37;;;;;;;12.48;9.32;;;2.70;68.80;;;;;;5031610;28;20794;-59
2021/01/29 09:04:38;;;;;;;11.43;9.07;;;2.70;69.30;;;;;;5033582;28;20576;-59
2021/01/29 09:07:20;;;;;;;16.83;10.93;;;2.80;69.10;;;;;;5033820;28;20044;-58
2021/01/29 09:09:47;;;;;;;14.07;9.68;;;2.80;69.00;;;;;;5035379;28;20045;-59
2021/01/29 09:12:25;;;;;;;15.48;10.68;;;2.90;68.70;;;;;;5032844;28;20056;-59
2021/01/29 09:15:20;;;;;;;14.70;11.15;;;2.90;68.50;;;;;;5033842;28;20506;-59
2021/01/29 09:18:05;;;;;;;13.45;9.95;;;3.00;68.60;;;;;;5031746;28;20067;-59
2021/01/29 09:20:45;;;;;;;14.60;9.77;;;3.00;68.40;;;;;;5032325;28;20099;-58
2021/01/29 09:23:30;;;;;;;13.70;9.93;;;3.00;68.50;;;;;;5035914;28;20036;-59
2021/01/29 09:26:12;;;;;;;16.95;11.55;;;3.10;68.10;;;;;;5027327;28;20076;-59
2021/01/29 09:28:41;;;;;;;15.95;10.18;;;3.00;67.90;;;;;;5028436;28;20064;-60
2021/01/29 09:31:21;;;;;;;18.20;11.68;;;3.00;68.30;;;;;;5026890;28;20108;-59
2021/01/29 09:33:49;;;;;;;15.05;11.18;;;3.10;68.60;;;;;;5032159;28;20037;-57
2021/01/29 09:36:24;;;;;;;15.43;11.07;;;3.10;68.70;;;;;;5031904;28;21591;-59
2021/01/29 09:39:12;;;;;;;15.75;11.70;;;3.20;68.70;;;;;;5033764;28;20055;-58
2021/01/29 09:41:54;;;;;;;17.02;12.27;;;3.20;68.70;;;;;;5033460;28;20033;-59
2021/01/29 09:44:47;;;;;;;17.08;12.38;;;3.20;68.80;;;;;;5033012;28;20480;-59
2021/01/29 09:47:19;;;;;;;13.68;9.95;;;3.30;68.50;;;;;;5035808;28;20033;-59
2021/01/29 09:49:46;;;;;;;15.07;10.15;;;3.30;69.00;;;;;;5038643;28;20040;-59
2021/01/29 09:52:23;;;;;;;15.10;10.25;;;3.20;68.90;;;;;;5034807;28;20028;-59
2021/01/29 09:54:57;;;;;;;16.98;12.13;;;3.20;68.90;;;;;;5032788;28;20060;-58
2021/01/29 09:57:37;;;;;;;17.33;11.73;;;3.20;68.90;;;;;;5033221;28;20099;-58
2021/01/29 10:00:18;;;;;;;18.83;13.10;;;3.10;69.20;;;;;;5035646;28;20041;-58
2021/01/29 10:03:07;;;;;;;19.10;13.35;;;3.10;69.30;;;;;;5029783;28;20036;-58
2021/01/29 10:05:49;;;;;;;14.73;10.50;;;3.10;69.40;;;;;;5030426;28;21064;-58
2021/01/29 10:08:17;;;;;;;18.92;12.02;;;3.10;69.50;;;;;;5032938;28;20029;-59
2021/01/29 10:10:43;;;;;;;16.30;10.93;;;3.00;69.10;;;;;;5029402;28;20045;-58
2021/01/29 10:13:47;;;;;;;17.05;11.90;;;2.90;69.20;;;;;;5024393;28;20036;-58
2021/01/29 10:16:52;;;;;;;20.08;12.32;;;2.90;68.80;;;;;;5030166;28;20102;-58
2021/01/29 10:19:42;;;;;;;15.20;11.05;;;2.70;69.00;;;;;;5028761;28;20063;-59
2021/01/29 10:22:17;;;;;;;14.77;10.77;;;2.50;69.00;;;;;;5026005;28;20049;-59
2021/01/29 10:24:54;;;;;;;18.48;12.05;;;2.40;69.60;;;;;;5031911;28;20545;-58
2021/01/29 10:27:22;;;;;;;15.38;11.02;;;2.40;69.90;;;;;;5030766;28;20036;-57
2021/01/29 10:30:00;;;;;;;18.00;12.43;;;2.30;70.00;;;;;;5032229;28;20039;-59
2021/01/29 10:32:33;;;;;;;15.60;10.35;;;2.20;70.10;;;;;;5027868;28;20040;-59
2021/01/29 10:35:19;;;;;;;15.60;11.15;;;2.20;70.10;;;;;;5020119;28;20067;-59
2021/01/29 10:38:03;;;;;;;15.52;10.55;;;2.10;70.20;;;;;;5020224;28;20033;-59
2021/01/29 10:40:35;;;;;;;16.67;12.02;;;2.00;70.00;;;;;;5031664;28;20578;-58
2021/01/29 10:43:04;;;;;;;;;;;1.90;70.60;;;;;;5028056;28;20052;-59
2021/01/29 10:45:52;;;;;;;14.30;9.23;;;1.80;70.60;;;;;;5026341;28;20020;-59
2021/01/29 10:48:26;;;;;;;16.23;11.52;;;1.80;71.20;;;;;;5029007;28;20421;-59
2021/01/29 10:51:09;;;;;;;16.65;11.55;;;1.80;71.20;;;;;;5025484;28;20504;-61
2021/01/29 10:53:36;;;;;;;17.88;10.90;;;1.80;71.50;;;;;;5033587;28;20025;-58
2021/01/29 10:56:10;;;;;;;16.55;11.65;;;1.80;71.50;;;;;;5037124;28;20447;-59
2021/01/29 10:58:52;;;;;;;15.60;11.13;;;1.80;71.30;;;;;;5035707;28;20058;-59
2021/01/29 11:01:32;;;;;;;16.52;10.70;;;1.70;71.30;;;;;;5029628;28;20039;-59
2021/01/29 11:04:23;;;;;;;15.05;10.85;;;1.70;71.80;;;;;;5027052;28;20124;-58
2021/01/29 11:07:06;;;;;;;13.15;9.98;;;1.70;72.50;;;;;;5031784;28;20400;-59
2021/01/29 11:09:41;;;;;;;11.85;8.98;;;1.90;72.90;;;;;;5034032;28;20131;-59
2021/01/29 11:12:42;;;;;;;15.02;10.07;;;1.90;73.20;;;;;;5039152;28;20725;-59
2021/01/29 11:15:13;;;;;;;16.08;11.88;;;2.00;72.90;;;;;;5025624;28;21487;-58
2021/01/29 11:17:55;;;;;;;14.95;10.50;;;2.10;72.90;;;;;;5033066;28;20029;-59
2021/01/29 11:20:34;;;;;;;21.30;13.23;;;2.20;72.70;;;;;;5033566;28;20057;-59
2021/01/29 11:23:12;;;;;;;16.83;12.00;;;2.20;73.10;;;;;;5034937;28;20078;-59
2021/01/29 11:25:58;;;;;;;17.23;11.23;;;2.30;73.20;;;;;;5036295;28;20025;-59
2021/01/29 11:28:36;;;;;;;20.73;14.02;;;2.30;73.20;;;;;;5031871;28;20083;-59
2021/01/29 11:31:32;;;;;;;17.50;12.80;;;2.40;73.20;;;;;;5035663;28;20377;-57
2021/01/29 11:34:00;;;;;;;20.83;14.15;;;2.50;73.30;;;;;;5032768;28;20124;-59
2021/01/29 11:36:46;;;;;;;18.15;12.63;;;2.50;73.50;;;;;;5032616;28;20024;-58
2021/01/29 11:39:19;;;;;;;18.38;12.48;;;2.60;72.70;;;;;;5029594;28;20025;-58
2021/01/29 11:41:59;;;;;;;21.10;15.43;;;2.60;72.80;;;;;;5031783;28;20026;-59
2021/01/29 11:45:02;;;;;;;23.92;15.18;;;2.60;72.60;;;;;;5029528;28;20037;-60
2021/01/29 11:48:12;;;;;;;19.95;13.35;;;2.60;72.40;;;;;;5034202;28;20138;-58
2021/01/29 11:51:03;;;;;;;21.65;13.95;;;2.60;72.30;;;;;;5029386;28;20045;-60
2021/01/29 11:53:34;;;;;;;19.63;13.25;;;2.60;72.30;;;;;;5032972;28;20028;-61
2021/01/29 11:56:06;;;;;;;18.27;13.50;;;2.70;72.20;;;;;;5027720;28;20047;-58
2021/01/29 11:58:50;;;;;;;19.40;12.90;;;2.70;72.60;;;;;;5032668;28;20398;-60
2021/01/29 12:01:29;;;;;;;19.70;13.50;;;2.70;72.80;;;;;;5034510;28;20495;-60
2021/01/29 12:04:08;;;;;;;17.77;12.25;;;2.70;72.80;;;;;;5033022;28;20032;-60
2021/01/29 12:06:48;;;;;;;18.95;12.10;;;2.80;72.80;;;;;;5030785;28;20032;-60
2021/01/29 12:09:35;;;;;;;20.60;14.50;;;2.80;73.00;;;;;;5023585;28;20388;-60
2021/01/29 12:12:04;;;;;;;21.92;13.50;;;2.80;73.00;;;;;;5028173;28;20730;-60
2021/01/29 12:14:54;;;;;;;17.00;12.30;;;2.80;73.20;;;;;;5034695;28;20025;-60
2021/01/29 12:17:27;;;;;;;22.17;14.02;;;2.80;73.30;;;;;;5026581;28;20041;-60
2021/01/29 12:20:09;;;;;;;21.33;14.73;;;2.90;73.40;;;;;;5030989;28;20033;-60
2021/01/29 12:22:35;;;;;;;17.98;12.00;;;2.90;73.00;;;;;;5029468;28;20052;-60
2021/01/29 12:25:31;;;;;;;22.13;12.70;;;2.90;73.30;;;;;;5029756;28;20120;-60
2021/01/29 12:28:22;;;;;;;15.30;10.57;;;2.90;73.40;;;;;;5026988;28;21163;-60
2021/01/29 12:31:29;;;;;;;16.48;11.45;;;2.90;72.90;;;;;;5030309;28;20546;-60
2021/01/29 12:34:04;;;;;;;16.40;11.48;;;2.90;73.10;;;;;;5028582;28;20519;-60
2021/01/29 12:36:32;;;;;;;18.88;14.05;;;2.90;73.70;;;;;;5031796;28;20109;-60
2021/01/29 12:39:19;;;;;;;18.80;12.95;;;2.90;74.00;;;;;;5026616;28;20567;-60
2021/01/29 12:42:00;;;;;;;17.23;12.45;;;2.90;74.30;;;;;;5031258;28;20032;-60
2021/01/29 12:44:52;;;;;;;16.80;11.65;;;3.00;74.10;;;;;;5034408;28;20031;-59
2021/01/29 12:47:26;;;;;;;19.02;11.60;;;3.00;74.00;;;;;;5028767;28;20028;-60
2021/01/29 12:50:17;;;;;;;19.00;13.15;;;3.10;73.80;;;;;;5025860;28;20029;-59
2021/01/29 12:52:52;;;;;;;19.65;13.77;;;3.10;74.10;;;;;;5032378;28;20431;-60
2021/01/29 12:55:31;;;;;;;15.73;11.98;;;3.10;74.10;;;;;;5032738;28;20380;-60
2021/01/29 12:58:06;;;;;;;17.75;11.32;;;3.10;74.00;;;;;;5030353;28;20505;-60
2021/01/29 13:00:38;;;;;;;16.85;11.57;;;3.10;73.90;;;;;;5027004;28;20541;-61
2021/01/29 13:03:13;;;;;;;15.27;11.00;;;3.20;73.80;;;;;;5027177;28;20111;-63
2021/01/29 13:06:00;;;;;;;15.18;10.98;;;3.20;73.80;;;;;;5028641;28;23121;-63
2021/01/29 13:08:41;;;;;;;14.02;10.38;;;3.10;73.80;;;;;;5029103;28;20024;-62
2021/01/29 13:11:33;;;;;;;16.65;12.40;;;3.10;73.70;;;;;;5029007;28;20032;-63
2021/01/29 13:14:23;;;;;;;18.25;12.48;;;3.10;73.60;;;;;;5029323;28;20040;-63
2021/01/29 13:17:26;;;;;;;18.80;12.13;;;3.10;73.80;;;;;;5026839;28;20562;-63
2021/01/29 13:20:15;;;;;;;16.80;11.02;;;3.10;73.60;;;;;;5033697;28;20064;-61
2021/01/29 13:22:47;;;;;;;15.02;10.52;;;3.10;73.60;;;;;;5034290;28;20099;-62
2021/01/29 13:25:15;;;;;;;17.33;12.32;;;3.10;73.70;;;;;;5030354;28;20816;-63
2021/01/29 13:28:03;;;;;;;17.42;11.43;;;3.10;73.30;;;;;;5032696;28;20453;-63
2021/01/29 13:30:47;;;;;;;15.60;11.00;;;3.10;73.30;;;;;;5032250;28;20462;-63
2021/01/29 13:33:15;;;;;;;16.17;11.57;;;3.00;73.50;;;;;;5033432;28;20151;-63
2021/01/29 13:35:42;;;;;;;18.80;12.73;;;3.00;73.20;;;;;;5028669;28;20036;-63
2021/01/29 13:38:22;;;;;;;17.50;11.85;;;3.00;73.60;;;;;;5044245;28;20056;-63
2021/01/29 13:40:48;;;;;;;18.63;12.52;;;3.00;73.70;;;;;;5034996;28;20029;-63
2021/01/29 13:43:41;;;;;;;18.48;12.65;;;3.00;73.60;;;;;;5029305;28;20035;-63
2021/01/29 13:46:19;;;;;;;20.33;13.02;;;3.00;73.50;;;;;;5027906;28;20815;-62
2021/01/29 13:48:45;;;;;;;20.05;13.23;;;3.00;73.50;;;;;;5029271;28;20029;-62
2021/01/29 13:51:37;;;;;;;18.25;12.00;;;2.90;73.20;;;;;;5025079;28;20045;-63
2021/01/29 13:54:03;;;;;;;16.48;11.93;;;2.90;73.00;;;;;;5030297;28;20037;-63
2021/01/29 13:56:47;;;;;;;15.85;11.25;;;2.90;73.00;;;;;;5026900;28;20218;-62
2021/01/29 13:59:28;;;;;;;14.63;10.20;;;2.90;73.10;;;;;;5024442;28;20580;-60
2021/01/29 14:02:16;;;;;;;14.35;10.05;;;2.80;73.20;;;;;;5031549;28;22676;-62